createdAt,value
2017-12-23T05:00:43.681Z,1025.84
2017-12-23T05:01:09.170Z,1025.85
2017-12-23T05:01:34.687Z,1025.84
2017-12-23T05:02:00.200Z,1025.88
2017-12-23T05:02:25.725Z,1025.84
2017-12-23T05:02:51.254Z,1025.87
2017-12-23T05:03:16.778Z,1025.84
2017-12-23T05:03:42.238Z,1025.84
2017-12-23T05:04:07.749Z,1025.86
2017-12-23T05:04:33.213Z,1025.81
2017-12-23T05:04:58.762Z,1025.85
2017-12-23T05:05:24.269Z,1025.81
2017-12-23T05:05:49.770Z,1025.81
2017-12-23T05:06:47.808Z,1025.85
2017-12-23T05:07:13.285Z,1025.82
2017-12-23T05:07:38.775Z,1025.84
2017-12-23T05:08:04.235Z,1025.83
2017-12-23T05:08:29.763Z,1025.79
2017-12-23T05:08:55.246Z,1025.85
2017-12-23T05:09:20.708Z,1025.82
2017-12-23T05:09:46.175Z,1025.78
2017-12-23T05:10:11.713Z,1025.8
2017-12-23T05:10:37.217Z,1025.76
2017-12-23T05:11:02.765Z,1025.71
2017-12-23T05:11:28.272Z,1025.73
2017-12-23T05:11:53.792Z,1025.68
2017-12-23T05:12:19.308Z,1025.69
2017-12-23T05:12:44.817Z,1025.67
2017-12-23T05:13:10.318Z,1025.65
2017-12-23T05:13:35.823Z,1025.69
2017-12-23T05:14:01.298Z,1025.61
2017-12-23T05:14:26.829Z,1025.63
2017-12-23T05:14:52.304Z,1025.68
2017-12-23T05:15:17.842Z,1025.65
2017-12-23T05:15:43.300Z,1025.71
2017-12-23T05:16:41.312Z,1025.73
2017-12-23T05:17:06.815Z,1025.72
2017-12-23T05:17:32.302Z,1025.72
2017-12-23T05:17:57.800Z,1025.69
2017-12-23T05:18:23.293Z,1025.74
2017-12-23T05:18:48.789Z,1025.69
2017-12-23T05:19:14.269Z,1025.74
2017-12-23T05:19:39.760Z,1025.68
2017-12-23T05:20:05.238Z,1025.7
2017-12-23T05:20:30.763Z,1025.75
2017-12-23T05:20:56.265Z,1025.63
2017-12-23T05:21:21.753Z,1025.69
2017-12-23T05:21:47.215Z,1025.67
2017-12-23T05:22:12.687Z,1025.69
2017-12-23T05:23:10.704Z,1025.6
2017-12-23T05:23:36.229Z,1025.6
2017-12-23T05:24:01.728Z,1025.62
2017-12-23T05:24:27.217Z,1025.63
2017-12-23T05:24:52.707Z,1025.62
2017-12-23T05:25:18.223Z,1025.64
2017-12-23T05:25:43.706Z,1025.62
2017-12-23T05:26:46.800Z,1025.64
2017-12-23T05:27:12.293Z,1025.59
2017-12-23T05:27:37.789Z,1025.58
2017-12-23T05:28:03.295Z,1025.56
2017-12-23T05:28:28.839Z,1025.59
2017-12-23T05:28:54.340Z,1025.61
2017-12-23T05:29:19.788Z,1025.59
2017-12-23T05:29:45.273Z,1025.63
2017-12-23T05:30:10.761Z,1025.54
2017-12-23T05:30:36.249Z,1025.55
2017-12-23T05:31:01.755Z,1025.56
2017-12-23T05:31:27.275Z,1025.52
2017-12-23T05:31:52.762Z,1025.54
2017-12-23T05:32:18.256Z,1025.52
2017-12-23T05:32:43.744Z,1025.49
2017-12-23T05:33:09.206Z,1025.49
2017-12-23T05:33:34.685Z,1025.46
2017-12-23T05:34:00.216Z,1025.51
2017-12-23T05:34:25.753Z,1025.43
2017-12-23T05:34:51.244Z,1025.4
2017-12-23T05:35:16.738Z,1025.44
2017-12-23T05:35:42.241Z,1025.44
2017-12-23T05:36:07.743Z,1025.39
2017-12-23T05:36:33.231Z,1025.43
2017-12-23T05:36:58.735Z,1025.42
2017-12-23T05:37:24.240Z,1025.4
2017-12-23T05:37:49.793Z,1025.43
2017-12-23T05:38:15.278Z,1025.42
2017-12-23T05:38:40.753Z,1025.37
2017-12-23T05:39:06.226Z,1025.37
2017-12-23T05:39:31.726Z,1025.44
2017-12-23T05:39:57.186Z,1025.43
2017-12-23T05:40:22.703Z,1025.44
2017-12-23T05:40:48.208Z,1025.43
2017-12-23T05:41:13.668Z,1025.43
2017-12-23T05:41:39.148Z,1025.46
2017-12-23T05:42:04.667Z,1025.45
2017-12-23T05:42:30.182Z,1025.46
2017-12-23T05:42:55.694Z,1025.5
2017-12-23T05:43:21.178Z,1025.5
2017-12-23T05:43:46.647Z,1025.46
2017-12-23T05:44:12.192Z,1025.45
2017-12-23T05:44:37.678Z,1025.51
2017-12-23T05:45:03.209Z,1025.49
2017-12-23T05:45:28.694Z,1025.47
2017-12-23T05:45:54.185Z,1025.52
2017-12-23T05:46:19.687Z,1025.5
2017-12-23T05:46:45.179Z,1025.51
2017-12-23T05:47:10.633Z,1025.48
2017-12-23T05:47:36.149Z,1025.54
2017-12-23T05:48:01.621Z,1025.48
2017-12-23T05:48:27.204Z,1025.5
2017-12-23T05:48:52.654Z,1025.51
2017-12-23T05:49:18.153Z,1025.52
2017-12-23T05:49:43.664Z,1025.54
2017-12-23T05:50:09.168Z,1025.47
2017-12-23T05:50:34.637Z,1025.46
2017-12-23T05:51:00.144Z,1025.52
2017-12-23T05:51:25.612Z,1025.47
2017-12-23T05:51:51.109Z,1025.5
2017-12-23T05:52:16.597Z,1025.45
2017-12-23T05:52:42.073Z,1025.45
2017-12-23T05:53:07.586Z,1025.46
2017-12-23T05:53:33.059Z,1025.42
2017-12-23T05:53:58.577Z,1025.46
2017-12-23T05:54:24.089Z,1025.42
2017-12-23T05:54:49.598Z,1025.43
2017-12-23T05:55:15.054Z,1025.45
2017-12-23T05:55:40.605Z,1025.44
2017-12-23T05:56:06.124Z,1025.41
2017-12-23T05:56:31.596Z,1025.46
2017-12-23T05:56:57.092Z,1025.4
2017-12-23T05:57:22.576Z,1025.45
2017-12-23T05:57:48.087Z,1025.45
2017-12-23T05:58:13.617Z,1025.47
2017-12-23T05:58:39.100Z,1025.5
2017-12-23T05:59:04.610Z,1025.47
2017-12-23T05:59:30.084Z,1025.5
2017-12-23T05:59:55.589Z,1025.5
2017-12-23T06:00:21.091Z,1025.53
2017-12-23T06:00:46.602Z,1025.52
2017-12-23T06:01:12.101Z,1025.46
2017-12-23T06:01:37.600Z,1025.54
2017-12-23T06:02:03.082Z,1025.54
2017-12-23T06:02:28.654Z,1025.49
2017-12-23T06:02:54.117Z,1025.53
2017-12-23T06:03:19.615Z,1025.55
2017-12-23T06:04:18.109Z,1025.54
2017-12-23T06:04:43.586Z,1025.5
2017-12-23T06:05:09.101Z,1025.48
2017-12-23T06:05:34.598Z,1025.47
2017-12-23T06:06:53.511Z,1025.43
2017-12-23T06:07:19.002Z,1025.45
2017-12-23T06:07:44.500Z,1025.4
2017-12-23T06:08:10.000Z,1025.45
2017-12-23T06:08:35.496Z,1025.42
2017-12-23T06:09:01.050Z,1025.39
2017-12-23T06:09:26.544Z,1025.4
2017-12-23T06:09:52.080Z,1025.44
2017-12-23T06:10:17.514Z,1025.39
2017-12-23T06:10:43.009Z,1025.4
2017-12-23T06:11:08.501Z,1025.39
2017-12-23T06:11:33.968Z,1025.39
2017-12-23T06:11:59.483Z,1025.44
2017-12-23T06:12:24.991Z,1025.41
2017-12-23T06:12:50.497Z,1025.42
2017-12-23T06:13:16.001Z,1025.44
2017-12-23T06:13:41.500Z,1025.44
2017-12-23T06:14:07.014Z,1025.44
2017-12-23T06:14:32.499Z,1025.42
2017-12-23T06:15:41.189Z,1025.4
2017-12-23T06:16:06.682Z,1025.41
2017-12-23T06:16:32.188Z,1025.42
2017-12-23T06:16:57.700Z,1025.49
2017-12-23T06:17:23.168Z,1025.42
2017-12-23T06:17:48.651Z,1025.43
2017-12-23T06:18:14.164Z,1025.41
2017-12-23T06:18:39.684Z,1025.43
2017-12-23T06:19:05.175Z,1025.42
2017-12-23T06:19:30.647Z,1025.36
2017-12-23T06:19:56.153Z,1025.4
2017-12-23T06:20:21.620Z,1025.39
2017-12-23T06:20:47.128Z,1025.4
2017-12-23T06:21:12.659Z,1025.35
2017-12-23T06:21:38.149Z,1025.45
2017-12-23T06:22:03.640Z,1025.31
2017-12-23T06:22:29.137Z,1025.26
2017-12-23T06:22:54.637Z,1025.32
2017-12-23T06:23:20.128Z,1025.34
2017-12-23T06:23:45.643Z,1025.34
2017-12-23T06:24:11.138Z,1025.36
2017-12-23T06:24:36.628Z,1025.35
2017-12-23T06:25:02.134Z,1025.32
2017-12-23T06:25:27.660Z,1025.31
2017-12-23T06:25:53.236Z,1025.27
2017-12-23T06:27:07.032Z,1025.26
2017-12-23T06:27:32.508Z,1025.3
2017-12-23T06:27:57.985Z,1025.27
2017-12-23T06:28:23.508Z,1025.31
2017-12-23T06:28:48.992Z,1025.32
2017-12-23T06:29:14.452Z,1025.3
2017-12-23T06:30:12.955Z,1025.28
2017-12-23T06:30:38.448Z,1025.24
2017-12-23T06:31:03.919Z,1025.28
2017-12-23T06:31:29.390Z,1025.24
2017-12-23T06:31:54.867Z,1025.29
2017-12-23T06:32:20.369Z,1025.27
2017-12-23T06:32:45.878Z,1025.2
2017-12-23T06:33:11.400Z,1025.24
2017-12-23T06:33:36.895Z,1025.25
2017-12-23T06:34:02.362Z,1025.27
2017-12-23T06:34:27.892Z,1025.26
2017-12-23T06:34:53.395Z,1025.31
2017-12-23T06:35:18.910Z,1025.28
2017-12-23T06:35:44.391Z,1025.29
2017-12-23T06:36:52.634Z,1025.27
2017-12-23T06:37:18.131Z,1025.3
2017-12-23T06:37:43.622Z,1025.31
2017-12-23T06:38:09.116Z,1025.31
2017-12-23T06:38:34.599Z,1025.26
2017-12-23T06:39:00.084Z,1025.3
2017-12-23T06:39:25.563Z,1025.37
2017-12-23T06:39:51.073Z,1025.36
2017-12-23T06:40:16.547Z,1025.36
2017-12-23T06:40:42.037Z,1025.32
2017-12-23T06:41:07.528Z,1025.31
2017-12-23T06:41:33.024Z,1025.34
2017-12-23T06:41:58.541Z,1025.32
2017-12-23T06:42:24.063Z,1025.38
2017-12-23T06:42:49.560Z,1025.34
2017-12-23T06:43:15.034Z,1025.33
2017-12-23T06:43:40.517Z,1025.36
2017-12-23T06:44:05.976Z,1025.33
2017-12-23T06:44:31.465Z,1025.4
2017-12-23T06:44:56.957Z,1025.41
2017-12-23T06:45:22.445Z,1025.41
2017-12-23T06:45:47.934Z,1025.41
2017-12-23T06:46:45.967Z,1025.42
2017-12-23T06:47:11.464Z,1025.4
2017-12-23T06:47:36.964Z,1025.36
2017-12-23T06:48:02.486Z,1025.43
2017-12-23T06:48:27.954Z,1025.43
2017-12-23T06:48:53.421Z,1025.43
2017-12-23T06:49:18.895Z,1025.43
2017-12-23T06:49:44.407Z,1025.43
2017-12-23T06:50:09.874Z,1025.49
2017-12-23T06:51:08.377Z,1025.44
2017-12-23T06:51:33.857Z,1025.44
2017-12-23T06:51:59.332Z,1025.4
2017-12-23T06:52:24.840Z,1025.43
2017-12-23T06:52:50.320Z,1025.34
2017-12-23T06:53:15.773Z,1025.37
2017-12-23T06:53:41.290Z,1025.45
2017-12-23T06:54:06.793Z,1025.33
2017-12-23T06:54:32.288Z,1025.37
2017-12-23T06:54:57.767Z,1025.38
2017-12-23T06:55:23.212Z,1025.36
2017-12-23T06:55:48.720Z,1025.37
2017-12-23T06:56:14.188Z,1025.34
2017-12-23T06:56:39.719Z,1025.33
2017-12-23T06:57:05.224Z,1025.42
2017-12-23T06:57:30.699Z,1025.33
2017-12-23T06:57:56.176Z,1025.37
2017-12-23T06:58:21.667Z,1025.38
2017-12-23T06:58:47.164Z,1025.39
2017-12-23T06:59:12.660Z,1025.35
2017-12-23T06:59:38.147Z,1025.4
2017-12-23T07:00:03.645Z,1025.36
2017-12-23T07:00:29.137Z,1025.39
2017-12-23T07:00:54.670Z,1025.37
2017-12-23T07:01:20.181Z,1025.38
2017-12-23T07:01:45.660Z,1025.41
2017-12-23T07:02:11.206Z,1025.38
2017-12-23T07:02:36.701Z,1025.37
2017-12-23T07:03:02.183Z,1025.36
2017-12-23T07:03:27.646Z,1025.4
2017-12-23T07:03:53.151Z,1025.39
2017-12-23T07:04:18.667Z,1025.34
2017-12-23T07:04:44.191Z,1025.37
2017-12-23T07:05:09.724Z,1025.38
2017-12-23T07:05:35.205Z,1025.35
2017-12-23T07:06:00.687Z,1025.35
2017-12-23T07:06:26.187Z,1025.39
2017-12-23T07:06:51.682Z,1025.41
2017-12-23T07:07:17.199Z,1025.42
2017-12-23T07:07:42.842Z,1025.36
2017-12-23T07:08:08.341Z,1025.4
2017-12-23T07:08:34.102Z,1025.37
2017-12-23T07:08:59.449Z,1025.4
2017-12-23T07:09:24.931Z,1025.34
2017-12-23T07:09:50.443Z,1025.37
2017-12-23T07:10:15.959Z,1025.39
2017-12-23T07:10:41.463Z,1025.42
2017-12-23T07:11:06.952Z,1025.4
2017-12-23T07:11:32.420Z,1025.38
2017-12-23T07:11:57.937Z,1025.46
2017-12-23T07:12:23.433Z,1025.38
2017-12-23T07:12:48.901Z,1025.38
2017-12-23T07:13:14.372Z,1025.47
2017-12-23T07:13:39.919Z,1025.4
2017-12-23T07:14:05.372Z,1025.43
2017-12-23T07:14:30.879Z,1025.39
2017-12-23T07:14:56.364Z,1025.42
2017-12-23T07:15:21.906Z,1025.4
2017-12-23T07:15:47.417Z,1025.41
2017-12-23T07:16:12.961Z,1025.42
2017-12-23T07:16:38.420Z,1025.42
2017-12-23T07:17:03.907Z,1025.46
2017-12-23T07:17:29.394Z,1025.42
2017-12-23T07:17:54.926Z,1025.48
2017-12-23T07:18:20.457Z,1025.42
2017-12-23T07:18:46.000Z,1025.45
2017-12-23T07:19:11.488Z,1025.44
2017-12-23T07:19:36.939Z,1025.4
2017-12-23T07:20:02.459Z,1025.48
2017-12-23T07:20:27.934Z,1025.42
2017-12-23T07:20:53.437Z,1025.41
2017-12-23T07:21:18.987Z,1025.41
2017-12-23T07:21:44.532Z,1025.41
2017-12-23T07:22:10.057Z,1025.44
2017-12-23T07:22:35.607Z,1025.42
2017-12-23T07:23:01.088Z,1025.39
2017-12-23T07:23:26.566Z,1025.41
2017-12-23T07:23:52.080Z,1025.34
2017-12-23T07:24:17.574Z,1025.36
2017-12-23T07:24:43.063Z,1025.37
2017-12-23T07:25:08.569Z,1025.36
2017-12-23T07:25:34.168Z,1025.28
2017-12-23T07:25:59.592Z,1025.31
2017-12-23T07:26:25.080Z,1025.32
2017-12-23T07:26:50.561Z,1025.27
2017-12-23T07:27:16.094Z,1025.29
2017-12-23T07:27:41.563Z,1025.33
2017-12-23T07:28:07.058Z,1025.2
2017-12-23T07:28:32.556Z,1025.29
2017-12-23T07:28:58.034Z,1025.3
2017-12-23T07:30:01.641Z,1025.3
2017-12-23T07:30:27.152Z,1025.3
2017-12-23T07:30:52.658Z,1025.31
2017-12-23T07:31:18.142Z,1025.29
2017-12-23T07:32:31.901Z,1025.33
2017-12-23T07:32:57.390Z,1025.33
2017-12-23T07:33:22.916Z,1025.36
2017-12-23T07:33:48.421Z,1025.37
2017-12-23T07:34:13.999Z,1025.36
2017-12-23T07:34:39.490Z,1025.39
2017-12-23T07:35:04.982Z,1025.38
2017-12-23T07:35:30.499Z,1025.4
2017-12-23T07:35:55.967Z,1025.38
2017-12-23T07:36:21.459Z,1025.35
2017-12-23T07:36:46.960Z,1025.36
2017-12-23T07:37:12.458Z,1025.38
2017-12-23T07:37:37.971Z,1025.36
2017-12-23T07:38:03.437Z,1025.35
2017-12-23T07:38:28.943Z,1025.33
2017-12-23T07:38:54.445Z,1025.34
2017-12-23T07:39:19.949Z,1025.35
2017-12-23T07:39:45.479Z,1025.29
2017-12-23T07:40:10.991Z,1025.28
2017-12-23T07:40:36.472Z,1025.29
2017-12-23T07:41:01.967Z,1025.29
2017-12-23T07:41:27.450Z,1025.36
2017-12-23T07:41:53.014Z,1025.28
2017-12-23T07:42:18.515Z,1025.34
2017-12-23T07:42:44.015Z,1025.31
2017-12-23T07:43:09.525Z,1025.26
2017-12-23T07:43:35.013Z,1025.3
2017-12-23T07:44:00.551Z,1025.3
2017-12-23T07:44:26.074Z,1025.35
2017-12-23T07:44:51.527Z,1025.35
2017-12-23T07:45:17.064Z,1025.37
2017-12-23T07:45:42.701Z,1025.33
2017-12-23T07:46:08.131Z,1025.35
2017-12-23T07:46:33.636Z,1025.31
2017-12-23T07:46:59.148Z,1025.34
2017-12-23T07:47:24.636Z,1025.34
2017-12-23T07:47:50.141Z,1025.29
2017-12-23T07:48:15.725Z,1025.33
2017-12-23T07:48:41.183Z,1025.33
2017-12-23T07:49:06.701Z,1025.31
2017-12-23T07:49:32.235Z,1025.24
2017-12-23T07:50:46.022Z,1025.21
2017-12-23T07:51:11.522Z,1025.32
2017-12-23T07:51:37.017Z,1025.29
2017-12-23T07:52:02.530Z,1025.32
2017-12-23T07:52:28.035Z,1025.32
2017-12-23T07:52:53.554Z,1025.32
2017-12-23T07:53:19.052Z,1025.33
2017-12-23T07:53:44.553Z,1025.35
2017-12-23T07:54:10.116Z,1025.34
2017-12-23T07:54:35.572Z,1025.31
2017-12-23T07:55:01.094Z,1025.33
2017-12-23T07:55:26.606Z,1025.37
2017-12-23T07:55:52.105Z,1025.35
2017-12-23T07:56:17.580Z,1025.35
2017-12-23T07:56:43.098Z,1025.35
2017-12-23T07:57:08.665Z,1025.42
2017-12-23T07:57:34.149Z,1025.37
2017-12-23T07:57:59.721Z,1025.4
2017-12-23T07:58:25.192Z,1025.4
2017-12-23T07:58:50.679Z,1025.41
2017-12-23T07:59:16.163Z,1025.35
2017-12-23T07:59:41.660Z,1025.36
2017-12-23T08:00:07.155Z,1025.36
2017-12-23T08:00:32.596Z,1025.37
2017-12-23T08:00:58.094Z,1025.4
2017-12-23T08:01:23.637Z,1025.48
2017-12-23T08:01:49.109Z,1025.37
2017-12-23T08:02:14.582Z,1025.45
2017-12-23T08:02:40.052Z,1025.46
2017-12-23T08:03:05.522Z,1025.48
2017-12-23T08:03:31.048Z,1025.42
2017-12-23T08:03:56.529Z,1025.44
2017-12-23T08:04:22.066Z,1025.47
2017-12-23T08:04:47.589Z,1025.38
2017-12-23T08:05:13.075Z,1025.43
2017-12-23T08:05:38.534Z,1025.45
2017-12-23T08:06:04.018Z,1025.44
2017-12-23T08:06:29.499Z,1025.4
2017-12-23T08:06:54.993Z,1025.46
2017-12-23T08:07:20.516Z,1025.39
2017-12-23T08:07:46.016Z,1025.42
2017-12-23T08:08:11.511Z,1025.38
2017-12-23T08:08:37.012Z,1025.48
2017-12-23T08:09:02.512Z,1025.45
2017-12-23T08:09:28.042Z,1025.44
2017-12-23T08:09:53.556Z,1025.42
2017-12-23T08:10:19.090Z,1025.5
2017-12-23T08:10:44.584Z,1025.45
2017-12-23T08:11:10.073Z,1025.42
2017-12-23T08:11:35.552Z,1025.46
2017-12-23T08:12:01.041Z,1025.43
2017-12-23T08:12:26.512Z,1025.41
2017-12-23T08:12:52.011Z,1025.49
2017-12-23T08:13:17.529Z,1025.45
2017-12-23T08:13:43.034Z,1025.47
2017-12-23T08:14:08.567Z,1025.38
2017-12-23T08:14:34.026Z,1025.4
2017-12-23T08:14:59.504Z,1025.37
2017-12-23T08:15:24.989Z,1025.37
2017-12-23T08:15:50.459Z,1025.38
2017-12-23T08:16:15.976Z,1025.38
2017-12-23T08:16:41.447Z,1025.33
2017-12-23T08:17:06.982Z,1025.31
2017-12-23T08:17:32.479Z,1025.33
2017-12-23T08:17:57.987Z,1025.33
2017-12-23T08:18:23.496Z,1025.35
2017-12-23T08:18:49.032Z,1025.35
2017-12-23T08:19:14.480Z,1025.35
2017-12-23T08:19:39.971Z,1025.28
2017-12-23T08:20:05.453Z,1025.31
2017-12-23T08:20:30.966Z,1025.32
2017-12-23T08:20:56.462Z,1025.28
2017-12-23T08:21:21.937Z,1025.31
2017-12-23T08:21:47.440Z,1025.3
2017-12-23T08:22:12.936Z,1025.37
2017-12-23T08:22:38.473Z,1025.3
2017-12-23T08:23:03.988Z,1025.34
2017-12-23T08:23:29.474Z,1025.25
2017-12-23T08:23:54.964Z,1025.39
2017-12-23T08:24:20.440Z,1025.31
2017-12-23T08:24:45.924Z,1025.25
2017-12-23T08:25:11.440Z,1025.33
2017-12-23T08:25:36.981Z,1025.32
2017-12-23T08:26:02.443Z,1025.3
2017-12-23T08:26:27.962Z,1025.22
2017-12-23T08:26:53.465Z,1025.3
2017-12-23T08:27:18.956Z,1025.23
2017-12-23T08:27:44.461Z,1025.19
2017-12-23T08:28:09.964Z,1025.19
2017-12-23T08:28:35.475Z,1025.21
2017-12-23T08:29:00.988Z,1025.17
2017-12-23T08:29:26.480Z,1025.15
2017-12-23T08:29:51.965Z,1025.11
2017-12-23T08:30:17.482Z,1025.15
2017-12-23T08:30:42.971Z,1025.15
2017-12-23T08:31:08.455Z,1025.15
2017-12-23T08:31:33.981Z,1025.17
2017-12-23T08:31:59.502Z,1025.15
2017-12-23T08:32:24.994Z,1025.16
2017-12-23T08:33:38.285Z,1025.19
2017-12-23T08:34:03.789Z,1025.2
2017-12-23T08:34:29.285Z,1025.18
2017-12-23T08:34:54.809Z,1025.17
2017-12-23T08:35:20.312Z,1025.22
2017-12-23T08:35:45.799Z,1025.19
2017-12-23T08:36:44.317Z,1025.22
2017-12-23T08:37:58.212Z,1025.17
2017-12-23T08:38:23.707Z,1025.23
2017-12-23T08:38:49.207Z,1025.19
2017-12-23T08:39:14.739Z,1025.19
2017-12-23T08:39:40.244Z,1025.23
2017-12-23T08:40:05.731Z,1025.29
2017-12-23T08:41:14.422Z,1025.26
2017-12-23T08:41:39.919Z,1025.33
2017-12-23T08:42:05.409Z,1025.31
2017-12-23T08:42:30.894Z,1025.31
2017-12-23T08:42:56.415Z,1025.27
2017-12-23T08:43:21.862Z,1025.29
2017-12-23T08:43:47.362Z,1025.26
2017-12-23T08:44:12.868Z,1025.34
2017-12-23T08:44:38.415Z,1025.27
2017-12-23T08:45:03.957Z,1025.22
2017-12-23T08:45:29.426Z,1025.28
2017-12-23T08:45:54.920Z,1025.26
2017-12-23T08:46:20.392Z,1025.25
2017-12-23T08:46:45.881Z,1025.26
2017-12-23T08:47:11.380Z,1025.28
2017-12-23T08:47:36.840Z,1025.24
2017-12-23T08:48:02.331Z,1025.26
2017-12-23T08:48:27.815Z,1025.23
2017-12-23T08:48:53.292Z,1025.27
2017-12-23T08:49:18.781Z,1025.27
2017-12-23T08:49:44.269Z,1025.29
2017-12-23T08:50:09.809Z,1025.19
2017-12-23T08:50:35.342Z,1025.24
2017-12-23T08:51:00.810Z,1025.26
2017-12-23T08:51:26.298Z,1025.24
2017-12-23T08:52:35.191Z,1025.18
2017-12-23T08:53:00.689Z,1025.19
2017-12-23T08:53:26.205Z,1025.16
2017-12-23T08:53:51.710Z,1025.14
2017-12-23T08:54:17.210Z,1025.13
2017-12-23T08:54:42.699Z,1025.12
2017-12-23T08:55:08.202Z,1025.03
2017-12-23T08:55:33.673Z,1025.05
2017-12-23T08:55:59.168Z,1025.1
2017-12-23T08:56:24.673Z,1024.99
2017-12-23T08:56:50.162Z,1025.06
2017-12-23T08:57:15.662Z,1025.01
2017-12-23T08:57:41.171Z,1025.05
2017-12-23T08:58:06.647Z,1024.99
2017-12-23T08:58:32.136Z,1024.99
2017-12-23T08:58:57.634Z,1024.98
2017-12-23T08:59:23.133Z,1024.98
2017-12-23T08:59:48.627Z,1025.02
2017-12-23T09:00:14.089Z,1025.01
2017-12-23T09:00:39.588Z,1024.96
2017-12-23T09:01:05.106Z,1024.97
2017-12-23T09:01:30.590Z,1024.96
2017-12-23T09:01:56.039Z,1024.95
2017-12-23T09:02:21.538Z,1024.96
2017-12-23T09:02:47.032Z,1024.98
2017-12-23T09:03:12.537Z,1024.94
2017-12-23T09:03:38.016Z,1024.91
2017-12-23T09:04:03.536Z,1024.95
2017-12-23T09:04:28.984Z,1024.94
2017-12-23T09:05:27.657Z,1024.97
2017-12-23T09:05:53.181Z,1024.91
2017-12-23T09:06:18.698Z,1024.94
2017-12-23T09:06:44.231Z,1024.95
2017-12-23T09:07:09.697Z,1024.95
2017-12-23T09:08:13.267Z,1024.98
2017-12-23T09:08:38.770Z,1024.94
2017-12-23T09:09:04.284Z,1024.95
2017-12-23T09:09:29.774Z,1024.94
2017-12-23T09:09:55.312Z,1024.98
2017-12-23T09:10:20.808Z,1024.97
2017-12-23T09:10:46.259Z,1024.99
2017-12-23T09:11:11.720Z,1024.98
2017-12-23T09:11:37.201Z,1024.98
2017-12-23T09:12:02.686Z,1024.95
2017-12-23T09:12:28.174Z,1025.01
2017-12-23T09:12:53.782Z,1024.95
2017-12-23T09:14:02.503Z,1024.99
2017-12-23T09:14:27.976Z,1024.98
2017-12-23T09:14:53.460Z,1024.97
2017-12-23T09:15:18.934Z,1025
2017-12-23T09:15:44.442Z,1024.96
2017-12-23T09:16:09.934Z,1025
2017-12-23T09:16:35.458Z,1025.02
2017-12-23T09:17:00.942Z,1025
2017-12-23T09:17:26.441Z,1024.98
2017-12-23T09:17:51.935Z,1024.9
2017-12-23T09:18:17.418Z,1025
2017-12-23T09:18:42.908Z,1024.98
2017-12-23T09:19:08.389Z,1024.91
2017-12-23T09:19:33.942Z,1024.97
2017-12-23T09:19:59.392Z,1024.95
2017-12-23T09:20:24.886Z,1024.91
2017-12-23T09:20:50.393Z,1024.99
2017-12-23T09:21:15.860Z,1025.02
2017-12-23T09:21:41.355Z,1024.95
2017-12-23T09:22:06.860Z,1024.94
2017-12-23T09:22:32.364Z,1024.97
2017-12-23T09:22:57.816Z,1024.9
2017-12-23T09:23:23.313Z,1024.96
2017-12-23T09:23:48.810Z,1024.92
2017-12-23T09:24:14.282Z,1024.92
2017-12-23T09:24:39.808Z,1024.97
2017-12-23T09:25:05.275Z,1025.03
2017-12-23T09:25:30.766Z,1024.98
2017-12-23T09:25:56.287Z,1025.05
2017-12-23T09:26:21.761Z,1024.98
2017-12-23T09:26:47.254Z,1025.02
2017-12-23T09:27:12.740Z,1025.05
2017-12-23T09:27:38.222Z,1025.07
2017-12-23T09:28:03.749Z,1025.01
2017-12-23T09:28:29.243Z,1025.04
2017-12-23T09:28:54.734Z,1025.01
2017-12-23T09:29:20.246Z,1025.02
2017-12-23T09:29:45.741Z,1025.01
2017-12-23T09:30:11.239Z,1025.01
2017-12-23T09:30:36.727Z,1025.05
2017-12-23T09:31:02.253Z,1025.06
2017-12-23T09:31:27.762Z,1025.04
2017-12-23T09:31:53.270Z,1025.08
2017-12-23T09:32:18.786Z,1025.12
2017-12-23T09:32:44.267Z,1025.07
2017-12-23T09:33:09.805Z,1025.08
2017-12-23T09:33:35.292Z,1025.09
2017-12-23T09:34:00.814Z,1025.08
2017-12-23T09:34:26.292Z,1025.09
2017-12-23T09:34:51.780Z,1025.08
2017-12-23T09:35:17.279Z,1025.16
2017-12-23T09:35:42.755Z,1025.17
2017-12-23T09:36:51.461Z,1025.13
2017-12-23T09:37:17.008Z,1025.15
2017-12-23T09:37:42.461Z,1025.18
2017-12-23T09:38:07.942Z,1025.11
2017-12-23T09:38:33.440Z,1025.17
2017-12-23T09:38:58.912Z,1025.2
2017-12-23T09:39:24.376Z,1025.13
2017-12-23T09:39:49.880Z,1025.19
2017-12-23T09:40:15.391Z,1025.14
2017-12-23T09:40:40.915Z,1025.17
2017-12-23T09:41:06.387Z,1025.16
2017-12-23T09:42:10.560Z,1025.17
2017-12-23T09:42:36.052Z,1025.23
2017-12-23T09:43:01.536Z,1025.18
2017-12-23T09:43:27.030Z,1025.19
2017-12-23T09:43:52.500Z,1025.18
2017-12-23T09:44:17.991Z,1025.22
2017-12-23T09:44:43.476Z,1025.25
2017-12-23T09:45:08.948Z,1025.22
2017-12-23T09:45:34.403Z,1025.24
2017-12-23T09:45:59.918Z,1025.16
2017-12-23T09:46:25.387Z,1025.19
2017-12-23T09:47:39.177Z,1025.17
2017-12-23T09:48:04.644Z,1025.17
2017-12-23T09:48:30.133Z,1025.16
2017-12-23T09:48:55.614Z,1025.19
2017-12-23T09:49:21.097Z,1025.19
2017-12-23T09:49:46.577Z,1025.17
2017-12-23T09:50:12.119Z,1025.2
2017-12-23T09:50:37.620Z,1025.19
2017-12-23T09:51:03.155Z,1025.22
2017-12-23T09:51:28.627Z,1025.21
2017-12-23T09:51:54.175Z,1025.22
2017-12-23T09:52:19.672Z,1025.18
2017-12-23T09:52:45.165Z,1025.2
2017-12-23T09:53:10.664Z,1025.21
2017-12-23T09:53:36.152Z,1025.17
2017-12-23T09:54:01.622Z,1025.19
2017-12-23T09:54:27.139Z,1025.23
2017-12-23T09:54:52.647Z,1025.14
2017-12-23T09:55:18.149Z,1025.19
2017-12-23T09:55:43.695Z,1025.2
2017-12-23T09:56:09.147Z,1025.21
2017-12-23T09:56:34.664Z,1025.21
2017-12-23T09:57:00.152Z,1025.2
2017-12-23T09:57:25.625Z,1025.28
2017-12-23T09:57:51.121Z,1025.23
2017-12-23T09:58:16.617Z,1025.3
2017-12-23T09:58:42.091Z,1025.19
2017-12-23T09:59:07.620Z,1025.14
2017-12-23T09:59:33.119Z,1025.25
2017-12-23T09:59:58.615Z,1025.18
2017-12-23T10:00:24.109Z,1025.2
2017-12-23T10:00:49.586Z,1025.17
2017-12-23T10:01:15.074Z,1025.19
2017-12-23T10:01:40.557Z,1025.18
2017-12-23T10:02:06.094Z,1025.25
2017-12-23T10:02:31.576Z,1025.23
2017-12-23T10:02:57.071Z,1025.21
2017-12-23T10:03:22.593Z,1025.08
2017-12-23T10:03:48.057Z,1025.21
2017-12-23T10:04:46.582Z,1025.2
2017-12-23T10:05:12.076Z,1025.2
2017-12-23T10:05:37.547Z,1025.19
2017-12-23T10:06:03.055Z,1025.23
2017-12-23T10:06:28.531Z,1025.14
2017-12-23T10:06:54.009Z,1025.13
2017-12-23T10:07:19.591Z,1025.2
2017-12-23T10:07:45.007Z,1025.16
2017-12-23T10:08:10.522Z,1025.22
2017-12-23T10:08:36.018Z,1025.15
2017-12-23T10:09:01.516Z,1025.15
2017-12-23T10:09:27.008Z,1025.15
2017-12-23T10:09:52.526Z,1025.2
2017-12-23T10:10:18.028Z,1025.13
2017-12-23T10:10:43.519Z,1025.13
2017-12-23T10:11:09.066Z,1025.15
2017-12-23T10:11:34.557Z,1025.16
2017-12-23T10:12:00.050Z,1025.15
2017-12-23T10:12:25.514Z,1025.1
2017-12-23T10:12:50.994Z,1025.13
2017-12-23T10:13:16.452Z,1025.15
2017-12-23T10:13:41.916Z,1025.1
2017-12-23T10:14:07.372Z,1025.14
2017-12-23T10:14:32.874Z,1025.15
2017-12-23T10:14:58.386Z,1025.15
2017-12-23T10:15:23.908Z,1025.09
2017-12-23T10:15:49.429Z,1025.15
2017-12-23T10:16:14.914Z,1025.1
2017-12-23T10:16:40.417Z,1025.06
2017-12-23T10:17:05.897Z,1025.1
2017-12-23T10:17:31.398Z,1025.07
2017-12-23T10:18:50.323Z,1025.06
2017-12-23T10:19:15.800Z,1025.05
2017-12-23T10:19:41.292Z,1025.02
2017-12-23T10:20:06.781Z,1025.02
2017-12-23T10:20:32.268Z,1025.04
2017-12-23T10:20:57.735Z,1024.97
2017-12-23T10:21:23.200Z,1024.99
2017-12-23T10:21:48.680Z,1025
2017-12-23T10:22:14.197Z,1024.98
2017-12-23T10:22:39.705Z,1024.93
2017-12-23T10:23:05.208Z,1024.97
2017-12-23T10:23:30.701Z,1024.96
2017-12-23T10:23:56.215Z,1024.95
2017-12-23T10:24:21.691Z,1024.95
2017-12-23T10:24:47.185Z,1024.94
2017-12-23T10:25:12.687Z,1024.92
2017-12-23T10:25:38.287Z,1024.92
2017-12-23T10:26:03.754Z,1024.86
2017-12-23T10:26:29.215Z,1024.97
2017-12-23T10:26:54.720Z,1024.88
2017-12-23T10:27:20.221Z,1024.88
2017-12-23T10:27:45.779Z,1024.84
2017-12-23T10:28:11.248Z,1024.83
2017-12-23T10:28:36.755Z,1024.83
2017-12-23T10:29:02.263Z,1024.81